createdAt,value
2022-11-13T00:01:21.899Z,58.50
2022-11-13T00:04:08.576Z,68.10
2022-11-13T00:06:59.171Z,62.20
2022-11-13T00:09:46.421Z,67.20
2022-11-13T00:12:33.316Z,65.80
2022-11-13T00:15:19.999Z,67.90
2022-11-13T00:18:06.523Z,73.20
2022-11-13T00:20:53.193Z,71.20
2022-11-13T00:23:39.635Z,67.90
2022-11-13T00:26:29.040Z,72.20
2022-11-13T00:29:15.649Z,73.50
2022-11-13T00:32:02.698Z,73.90
2022-11-13T00:34:49.519Z,74.60
2022-11-13T00:37:36.390Z,73.20
2022-11-13T00:40:23.029Z,78.80
2022-11-13T00:43:09.911Z,80.70
2022-11-13T00:45:56.720Z,81.30
2022-11-13T00:48:43.428Z,69.60
2022-11-13T00:51:30.190Z,79.70
2022-11-13T00:54:16.747Z,80.90
2022-11-13T00:57:03.591Z,80.40
2022-11-13T00:59:50.548Z,75.80
2022-11-13T01:02:37.278Z,81.00
2022-11-13T01:05:24.107Z,81.50
2022-11-13T01:08:13.348Z,79.60
2022-11-13T01:11:00.158Z,85.70
2022-11-13T01:13:49.511Z,94.70
2022-11-13T01:16:36.076Z,87.70
2022-11-13T01:19:22.521Z,84.60
2022-11-13T01:22:09.123Z,78.00
2022-11-13T01:24:56.082Z,77.80
2022-11-13T01:27:42.862Z,81.10
2022-11-13T01:30:29.571Z,80.60
2022-11-13T01:33:16.573Z,78.30
2022-11-13T01:36:08.904Z,84.30
2022-11-13T01:38:56.615Z,89.60
2022-11-13T01:41:43.560Z,95.80
2022-11-13T01:45:24.498Z,88.00
2022-11-13T01:48:12.546Z,79.20
2022-11-13T01:50:59.192Z,85.70
2022-11-13T01:53:47.970Z,81.90
2022-11-13T01:56:34.575Z,84.20
2022-11-13T01:59:32.307Z,87.30
2022-11-13T02:02:18.964Z,87.40
2022-11-13T02:05:09.204Z,83.10
2022-11-13T02:07:55.913Z,87.00
2022-11-13T02:10:42.851Z,76.30
2022-11-13T02:13:29.457Z,91.60
2022-11-13T02:16:16.659Z,88.90
2022-11-13T02:19:24.139Z,94.00
2022-11-13T02:22:28.564Z,86.90
2022-11-13T02:25:17.195Z,91.30
2022-11-13T02:28:03.600Z,85.70
2022-11-13T02:30:50.244Z,84.10
2022-11-13T02:33:37.232Z,90.50
2022-11-13T02:36:25.907Z,99.50
2022-11-13T02:39:14.664Z,94.10
2022-11-13T02:42:01.726Z,99.90
2022-11-13T02:44:48.209Z,89.70
2022-11-13T02:47:35.136Z,88.60
2022-11-13T02:50:21.919Z,88.20
2022-11-13T02:53:08.542Z,88.90
2022-11-13T02:55:55.223Z,91.00
2022-11-13T02:58:42.094Z,85.60
2022-11-13T03:01:28.812Z,90.30
2022-11-13T03:04:15.833Z,85.00
2022-11-13T03:07:02.640Z,92.00
2022-11-13T03:09:49.378Z,92.90
2022-11-13T03:12:36.463Z,85.90
2022-11-13T03:15:23.683Z,84.70
2022-11-13T03:18:12.057Z,80.60
2022-11-13T03:20:58.795Z,80.40
2022-11-13T03:23:45.567Z,77.50
2022-11-13T03:26:32.533Z,85.90
2022-11-13T03:29:19.310Z,80.90
2022-11-13T03:32:06.174Z,79.40
2022-11-13T03:34:52.676Z,76.20
2022-11-13T03:37:39.348Z,80.90
2022-11-13T03:40:26.044Z,77.40
2022-11-13T03:43:13.795Z,78.60
2022-11-13T03:46:00.374Z,76.70
2022-11-13T03:48:47.044Z,73.90
2022-11-13T03:51:33.682Z,84.00
2022-11-13T03:54:20.429Z,75.70
2022-11-13T03:57:06.835Z,78.00
2022-11-13T03:59:53.490Z,76.60
2022-11-13T04:02:40.156Z,76.40
2022-11-13T04:05:27.708Z,73.00
2022-11-13T04:08:14.527Z,75.80
2022-11-13T04:11:09.493Z,68.60
2022-11-13T04:13:56.195Z,74.70
2022-11-13T04:16:42.996Z,67.00
2022-11-13T04:19:29.527Z,66.80
2022-11-13T04:22:16.400Z,63.40
2022-11-13T04:25:03.793Z,64.50
2022-11-13T04:27:51.859Z,61.80
2022-11-13T04:30:38.435Z,72.40
2022-11-13T04:33:25.357Z,62.00
2022-11-13T04:36:11.763Z,62.70
2022-11-13T04:38:58.658Z,59.10
2022-11-13T04:42:03.623Z,61.50
2022-11-13T04:44:50.667Z,61.10
2022-11-13T04:47:37.387Z,52.80
2022-11-13T04:50:24.160Z,62.00
2022-11-13T04:53:10.552Z,60.10
2022-11-13T04:55:57.225Z,63.90
2022-11-13T04:58:43.987Z,53.50
2022-11-13T05:01:31.016Z,58.40
2022-11-13T05:04:17.756Z,56.30
2022-11-13T05:07:04.489Z,58.90
2022-11-13T05:09:51.184Z,56.60
2022-11-13T05:12:37.936Z,63.50
2022-11-13T05:15:24.616Z,62.40
2022-11-13T05:18:11.233Z,61.30
2022-11-13T05:20:58.131Z,59.60
2022-11-13T05:23:44.762Z,63.00
2022-11-13T05:26:31.959Z,63.80
2022-11-13T05:29:18.764Z,66.90
2022-11-13T05:32:05.518Z,57.60
2022-11-13T05:34:52.383Z,59.30
2022-11-13T05:37:39.276Z,58.60
2022-11-13T05:40:25.799Z,56.50
2022-11-13T05:43:12.549Z,59.50
2022-11-13T05:46:05.419Z,59.00
2022-11-13T05:49:01.195Z,56.10
2022-11-13T05:51:48.023Z,56.80
2022-11-13T05:54:34.831Z,54.80
2022-11-13T05:57:21.455Z,54.50
2022-11-13T06:00:08.453Z,63.00
2022-11-13T06:02:54.913Z,58.00
2022-11-13T06:05:41.425Z,57.60
2022-11-13T06:08:28.462Z,54.40
2022-11-13T06:11:17.924Z,55.10
2022-11-13T06:14:04.356Z,48.90
2022-11-13T06:16:51.123Z,57.60
2022-11-13T06:19:37.608Z,48.00
2022-11-13T06:22:24.470Z,48.60
2022-11-13T06:25:11.229Z,52.20
2022-11-13T06:27:58.024Z,46.00
2022-11-13T06:30:44.641Z,45.20
2022-11-13T06:33:31.809Z,42.80
2022-11-13T06:36:21.800Z,41.50
2022-11-13T06:39:09.990Z,40.40
2022-11-13T06:41:56.709Z,43.90
2022-11-13T06:44:43.620Z,42.20
2022-11-13T06:47:30.267Z,42.30
2022-11-13T06:50:17.120Z,44.10
2022-11-13T06:53:03.665Z,46.20
2022-11-13T06:55:50.664Z,45.50
2022-11-13T06:58:38.100Z,46.60
2022-11-13T07:01:27.015Z,42.60
2022-11-13T07:04:14.275Z,46.10
2022-11-13T07:07:01.274Z,54.30
2022-11-13T07:09:48.291Z,48.00
2022-11-13T07:12:34.979Z,40.30
2022-11-13T07:15:21.483Z,51.60
2022-11-13T07:18:08.283Z,47.30
2022-11-13T07:20:54.926Z,44.90
2022-11-13T07:23:43.381Z,41.80
2022-11-13T07:26:30.571Z,42.40
2022-11-13T07:29:17.282Z,43.80
2022-11-13T07:32:03.788Z,42.10
2022-11-13T07:34:50.130Z,46.20
2022-11-13T07:37:36.825Z,48.70
2022-11-13T07:40:23.328Z,50.10
2022-11-13T07:43:10.219Z,48.80
2022-11-13T07:45:59.035Z,45.20
2022-11-13T07:48:45.702Z,50.60
2022-11-13T07:51:32.431Z,41.60
2022-11-13T07:54:19.357Z,44.70
2022-11-13T07:57:06.362Z,44.50
2022-11-13T07:59:54.291Z,42.30
2022-11-13T08:02:40.765Z,47.50
2022-11-13T08:05:27.554Z,47.20
2022-11-13T08:08:15.274Z,42.80
2022-11-13T08:11:06.689Z,45.60
2022-11-13T08:13:53.197Z,51.30
2022-11-13T08:16:39.963Z,51.30
2022-11-13T08:19:26.852Z,45.40
2022-11-13T08:22:13.441Z,44.60
2022-11-13T08:25:00.249Z,49.70
2022-11-13T08:27:46.885Z,54.70
2022-11-13T08:30:33.637Z,50.70
2022-11-13T08:33:20.337Z,48.20
2022-11-13T08:36:07.248Z,45.20
2022-11-13T08:38:53.683Z,46.70
2022-11-13T08:41:40.331Z,47.50
2022-11-13T08:44:27.302Z,44.60
2022-11-13T08:47:14.225Z,51.70
2022-11-13T08:50:02.068Z,63.00
2022-11-13T08:52:53.534Z,47.90
2022-11-13T08:55:40.256Z,46.10
2022-11-13T08:58:26.865Z,45.30
2022-11-13T09:01:13.887Z,49.70
2022-11-13T09:04:00.452Z,51.00
2022-11-13T09:06:47.359Z,52.90
2022-11-13T09:09:34.549Z,53.90
2022-11-13T09:12:21.585Z,50.30
2022-11-13T09:15:08.921Z,50.80
2022-11-13T09:17:59.630Z,50.50
2022-11-13T09:20:46.028Z,47.50
2022-11-13T09:23:32.971Z,51.60
2022-11-13T09:26:19.463Z,48.10
2022-11-13T09:29:06.249Z,51.00
2022-11-13T09:31:52.618Z,48.90
2022-11-13T09:34:39.179Z,50.00
2022-11-13T09:37:25.920Z,52.60
2022-11-13T09:40:24.886Z,53.20
2022-11-13T09:43:23.912Z,56.50
2022-11-13T09:46:34.851Z,54.60
2022-11-13T09:49:28.612Z,59.90
2022-11-13T09:52:20.198Z,56.00
2022-11-13T09:55:12.371Z,53.50
2022-11-13T09:58:19.062Z,52.80
2022-11-13T10:01:14.544Z,53.20
2022-11-13T10:04:10.807Z,60.30
2022-11-13T10:07:14.141Z,56.30
2022-11-13T10:10:05.081Z,56.40
2022-11-13T10:12:54.522Z,53.70
2022-11-13T10:15:44.538Z,51.50
2022-11-13T10:18:36.270Z,51.90
2022-11-13T10:21:45.259Z,52.30
2022-11-13T10:24:42.551Z,53.50
2022-11-13T10:27:29.194Z,54.20
2022-11-13T10:30:18.522Z,51.60
2022-11-13T10:33:09.265Z,120.50
2022-11-13T10:36:04.824Z,64.10
2022-11-13T10:39:02.636Z,55.20
2022-11-13T10:41:51.150Z,61.10
2022-11-13T10:44:37.640Z,55.30
2022-11-13T10:47:56.669Z,60.60
2022-11-13T10:50:33.803Z,60.40
2022-11-13T10:53:21.203Z,53.20
2022-11-13T10:56:35.073Z,56.00
2022-11-13T10:59:22.366Z,54.30
2022-11-13T11:02:22.777Z,63.80
2022-11-13T11:05:18.451Z,59.70
2022-11-13T11:08:10.309Z,51.40
2022-11-13T11:11:37.808Z,53.70
2022-11-13T11:14:32.220Z,55.30
2022-11-13T11:17:23.076Z,52.90
2022-11-13T11:20:21.844Z,54.50
2022-11-13T11:23:30.002Z,58.60
2022-11-13T11:26:34.656Z,63.70
2022-11-13T11:29:46.723Z,67.80
2022-11-13T11:32:45.240Z,57.90
2022-11-13T11:35:40.484Z,56.90
2022-11-13T11:38:35.366Z,54.50
2022-11-13T11:41:28.882Z,56.10
2022-11-13T11:44:29.637Z,54.60
2022-11-13T11:47:18.024Z,56.60
2022-11-13T11:50:06.735Z,58.40
2022-11-13T11:53:00.439Z,90.90
2022-11-13T11:56:11.415Z,61.40
2022-11-13T11:59:10.245Z,59.40
2022-11-13T12:02:29.936Z,58.30
2022-11-13T12:05:30.243Z,59.70
2022-11-13T12:08:30.861Z,55.70
2022-11-13T12:11:28.387Z,53.70
2022-11-13T12:14:27.114Z,53.60
2022-11-13T12:17:32.269Z,56.30
2022-11-13T12:20:35.238Z,53.20
2022-11-13T12:23:32.492Z,53.90
2022-11-13T12:26:48.265Z,52.50
2022-11-13T12:29:56.877Z,49.90
2022-11-13T12:33:01.441Z,50.00
2022-11-13T12:35:51.983Z,54.90
2022-11-13T12:38:52.403Z,49.50
2022-11-13T12:41:49.049Z,53.30
2022-11-13T12:45:09.017Z,53.00
2022-11-13T12:47:55.471Z,52.90
2022-11-13T12:50:45.222Z,52.20
2022-11-13T12:53:50.705Z,49.80
2022-11-13T12:56:37.668Z,59.90
2022-11-13T12:59:46.499Z,50.50
2022-11-13T13:02:59.620Z,48.00
2022-11-13T13:06:10.479Z,44.80
2022-11-13T13:09:20.000Z,45.70
2022-11-13T13:12:27.553Z,54.50
2022-11-13T13:15:29.542Z,49.30
2022-11-13T13:18:16.430Z,49.30
2022-11-13T13:21:07.870Z,51.60
2022-11-13T13:23:54.656Z,54.60
2022-11-13T13:26:47.226Z,55.80
2022-11-13T13:29:34.059Z,47.10
2022-11-13T13:32:36.170Z,45.30
2022-11-13T13:36:09.199Z,53.90
2022-11-13T13:39:15.952Z,53.60
2022-11-13T13:42:19.174Z,61.00
2022-11-13T13:45:25.021Z,54.50
2022-11-13T13:48:15.775Z,51.20
2022-11-13T13:51:04.455Z,57.00
2022-11-13T13:53:51.473Z,50.90
2022-11-13T13:56:42.444Z,55.70
2022-11-13T13:59:36.217Z,52.20
2022-11-13T14:02:24.138Z,49.00
2022-11-13T14:05:31.153Z,48.90
2022-11-13T14:08:19.447Z,45.60
2022-11-13T14:11:22.014Z,51.20
2022-11-13T14:14:20.729Z,47.90
2022-11-13T14:17:10.491Z,44.90
2022-11-13T14:20:01.203Z,43.50
2022-11-13T14:22:55.265Z,44.00
2022-11-13T14:25:44.817Z,44.10
2022-11-13T14:28:44.452Z,46.30
2022-11-13T14:31:35.748Z,40.70
2022-11-13T14:34:24.025Z,40.10
2022-11-13T14:37:31.504Z,42.70
2022-11-13T14:40:28.646Z,40.60
2022-11-13T14:43:23.930Z,46.70
2022-11-13T14:46:30.895Z,47.10
2022-11-13T14:49:34.138Z,42.90
2022-11-13T14:52:25.897Z,44.90
2022-11-13T14:55:28.210Z,41.30
2022-11-13T14:58:15.447Z,38.30
2022-11-13T15:01:14.076Z,46.10
2022-11-13T15:04:00.751Z,39.10
2022-11-13T15:06:55.821Z,40.10
2022-11-13T15:09:42.648Z,42.90
2022-11-13T15:12:29.333Z,59.40
2022-11-13T15:15:19.073Z,50.10
2022-11-13T15:18:07.019Z,57.40
2022-11-13T15:20:53.861Z,52.60
2022-11-13T15:23:40.988Z,57.70
2022-11-13T15:26:27.761Z,58.70
2022-11-13T15:29:14.458Z,58.60
2022-11-13T15:32:01.244Z,49.30
2022-11-13T15:34:47.979Z,49.20
2022-11-13T15:37:35.791Z,48.20
2022-11-13T15:40:22.419Z,52.70
2022-11-13T15:43:16.532Z,52.50
2022-11-13T15:46:03.062Z,56.40
2022-11-13T15:48:50.324Z,54.20
2022-11-13T15:51:41.333Z,52.30
2022-11-13T15:54:38.173Z,54.20
2022-11-13T15:57:26.832Z,54.10
2022-11-13T16:00:18.931Z,56.90
2022-11-13T16:03:11.451Z,52.20
2022-11-13T16:05:59.432Z,54.30
2022-11-13T16:08:46.378Z,59.10
2022-11-13T16:11:34.423Z,63.20
2022-11-13T16:14:24.785Z,66.60
2022-11-13T16:17:14.333Z,62.40
2022-11-13T16:20:01.505Z,63.00
2022-11-13T16:22:48.221Z,59.70
2022-11-13T16:25:35.236Z,69.90
2022-11-13T16:28:22.284Z,62.70
2022-11-13T16:31:09.671Z,63.60
2022-11-13T16:33:56.157Z,56.20
2022-11-13T16:36:43.178Z,73.30
2022-11-13T16:39:30.042Z,56.20
2022-11-13T16:42:17.429Z,57.70
2022-11-13T16:45:04.083Z,57.30
2022-11-13T16:47:50.815Z,57.50
2022-11-13T16:50:39.624Z,55.10
2022-11-13T16:53:26.254Z,57.10
2022-11-13T16:56:22.303Z,53.90
2022-11-13T16:59:10.162Z,68.70
2022-11-13T17:01:56.873Z,64.50
2022-11-13T17:04:44.168Z,63.90
2022-11-13T17:07:31.176Z,68.20
2022-11-13T17:10:35.831Z,82.30
2022-11-13T17:13:22.790Z,90.60
2022-11-13T17:16:13.049Z,70.60
2022-11-13T17:19:00.859Z,76.60
2022-11-13T17:21:47.337Z,64.80
2022-11-13T17:24:34.152Z,70.90
2022-11-13T17:27:20.730Z,65.90
2022-11-13T17:30:08.203Z,57.50
2022-11-13T17:32:54.847Z,314.60
2022-11-13T17:35:41.746Z,140.30
2022-11-13T17:38:28.436Z,81.10
2022-11-13T17:41:16.152Z,71.00
2022-11-13T17:44:02.973Z,74.80
2022-11-13T17:46:49.799Z,82.90
2022-11-13T17:49:36.324Z,81.40
2022-11-13T17:52:23.157Z,80.30
2022-11-13T17:55:11.893Z,73.60
2022-11-13T17:58:00.193Z,67.20
2022-11-13T18:00:46.675Z,74.30
2022-11-13T18:03:33.915Z,63.40
2022-11-13T18:06:22.059Z,59.30
2022-11-13T18:09:08.901Z,66.80
2022-11-13T18:11:55.543Z,62.10
2022-11-13T18:14:42.185Z,64.20
2022-11-13T18:17:28.944Z,66.30
2022-11-13T18:20:16.216Z,65.00
2022-11-13T18:23:03.210Z,68.60
2022-11-13T18:25:50.182Z,66.10
2022-11-13T18:28:37.395Z,71.40
2022-11-13T18:31:25.048Z,66.70
2022-11-13T18:34:15.170Z,68.80
2022-11-13T18:37:01.848Z,102.50
2022-11-13T18:39:48.628Z,79.40
2022-11-13T18:42:35.528Z,69.10
2022-11-13T18:45:22.250Z,86.40
2022-11-13T18:48:09.023Z,83.70
2022-11-13T18:50:57.584Z,101.90
2022-11-13T18:53:45.769Z,129.20
2022-11-13T18:56:32.560Z,78.00
2022-11-13T18:59:19.679Z,71.90
2022-11-13T19:02:06.723Z,71.50
2022-11-13T19:04:53.268Z,69.70
2022-11-13T19:07:40.168Z,70.00
2022-11-13T19:10:27.425Z,67.40
2022-11-13T19:13:15.576Z,67.90
2022-11-13T19:16:07.505Z,69.60
2022-11-13T19:18:59.788Z,60.80
2022-11-13T19:21:47.251Z,73.80
2022-11-13T19:24:35.340Z,63.10
2022-11-13T19:27:21.863Z,70.30
2022-11-13T19:30:08.823Z,67.00
2022-11-13T19:32:55.536Z,68.00
2022-11-13T19:35:42.378Z,67.00
2022-11-13T19:38:29.033Z,66.20
2022-11-13T19:41:17.493Z,64.30
2022-11-13T19:44:05.904Z,57.70
2022-11-13T19:46:53.506Z,62.30
2022-11-13T19:49:40.077Z,60.00
2022-11-13T19:52:27.044Z,68.50
2022-11-13T19:55:13.509Z,64.30
2022-11-13T19:58:01.403Z,65.90
2022-11-13T20:00:49.398Z,71.50
2022-11-13T20:03:36.668Z,67.10
2022-11-13T20:06:24.013Z,74.80
2022-11-13T20:09:11.878Z,78.60
2022-11-13T20:11:58.422Z,65.70
2022-11-13T20:14:45.560Z,67.80
2022-11-13T20:17:32.572Z,68.10
2022-11-13T20:20:19.399Z,63.50
2022-11-13T20:23:05.930Z,65.40
2022-11-13T20:25:59.252Z,63.40
2022-11-13T20:28:47.052Z,67.20
2022-11-13T20:31:34.604Z,65.80
2022-11-13T20:34:21.129Z,65.10
2022-11-13T20:37:07.873Z,65.30
2022-11-13T20:39:54.285Z,60.50
2022-11-13T20:42:40.820Z,58.40
2022-11-13T20:45:27.181Z,69.30
2022-11-13T20:48:14.072Z,55.90
2022-11-13T20:51:12.935Z,57.30
2022-11-13T20:53:59.915Z,53.50
2022-11-13T20:56:46.660Z,54.10
2022-11-13T20:59:33.444Z,52.80
2022-11-13T21:02:19.868Z,56.10
2022-11-13T21:05:07.088Z,63.20
2022-11-13T21:07:53.827Z,62.40
2022-11-13T21:10:40.524Z,51.30
2022-11-13T21:13:27.661Z,57.90
2022-11-13T21:16:16.686Z,51.30
2022-11-13T21:19:03.280Z,50.30
2022-11-13T21:21:50.234Z,61.30
2022-11-13T21:24:37.964Z,49.50
2022-11-13T21:27:24.499Z,48.30
2022-11-13T21:30:11.761Z,51.60
2022-11-13T21:33:00.112Z,53.90
2022-11-13T21:35:46.975Z,52.20
2022-11-13T21:38:33.907Z,50.00
2022-11-13T21:41:22.401Z,44.10
2022-11-13T21:44:10.675Z,48.30
2022-11-13T21:46:57.948Z,45.40
2022-11-13T21:49:44.799Z,46.20
2022-11-13T21:52:32.860Z,49.10
2022-11-13T21:55:19.775Z,48.70
2022-11-13T21:58:06.275Z,44.10
2022-11-13T22:00:53.243Z,51.00
2022-11-13T22:03:39.992Z,45.20
2022-11-13T22:06:29.498Z,48.80
2022-11-13T22:09:18.300Z,42.50
2022-11-13T22:12:05.647Z,42.40
2022-11-13T22:14:52.579Z,48.90
2022-11-13T22:17:41.373Z,46.80
2022-11-13T22:20:28.317Z,45.10
2022-11-13T22:23:15.775Z,46.90
2022-11-13T22:26:22.341Z,48.20
2022-11-13T22:29:09.239Z,48.20
2022-11-13T22:31:56.066Z,47.10
2022-11-13T22:34:42.789Z,50.20
2022-11-13T22:37:29.329Z,47.70
2022-11-13T22:40:16.199Z,44.90
2022-11-13T22:43:03.113Z,47.20
2022-11-13T22:45:49.861Z,48.10
2022-11-13T22:48:38.205Z,50.00
2022-11-13T22:51:30.730Z,49.10
2022-11-13T22:54:18.720Z,41.20
2022-11-13T22:57:05.591Z,43.90
2022-11-13T22:59:52.231Z,42.80
2022-11-13T23:02:41.886Z,43.80
2022-11-13T23:05:35.282Z,42.00
2022-11-13T23:08:22.623Z,42.80
2022-11-13T23:11:19.004Z,45.00
2022-11-13T23:14:09.999Z,43.20
2022-11-13T23:16:56.759Z,39.90
2022-11-13T23:19:43.460Z,37.80
2022-11-13T23:22:30.212Z,37.20
2022-11-13T23:25:16.844Z,37.20
2022-11-13T23:28:05.898Z,32.00
2022-11-13T23:30:53.066Z,39.30
2022-11-13T23:33:40.309Z,38.40
2022-11-13T23:36:27.567Z,35.60
2022-11-13T23:39:14.896Z,36.80
2022-11-13T23:42:01.271Z,37.10
2022-11-13T23:44:47.989Z,36.70
2022-11-13T23:47:34.615Z,38.70
2022-11-13T23:50:21.375Z,36.20
2022-11-13T23:53:08.835Z,35.30
2022-11-13T23:55:55.375Z,38.20
2022-11-13T23:58:42.217Z,40.90
